sensor_id;sensor_type;location;lat;lon;timestamp;pressure;altitude;pressure_sealevel;temperature;humidity
43312;BME280;30041;48.300;16.352;2023-02-13T00:02:00;101926.00;;;21.55;40.85
43312;BME280;30041;48.300;16.352;2023-02-13T00:04:25;101929.72;;;21.54;40.85
43312;BME280;30041;48.300;16.352;2023-02-13T00:06:50;101921.34;;;21.49;41.02
43312;BME280;30041;48.300;16.352;2023-02-13T00:09:16;101918.25;;;21.52;41.01
43312;BME280;30041;48.300;16.352;2023-02-13T00:11:41;101914.28;;;21.48;41.00
43312;BME280;30041;48.300;16.352;2023-02-13T00:14:06;101913.25;;;21.49;40.97
43312;BME280;30041;48.300;16.352;2023-02-13T00:16:32;101915.13;;;21.48;40.96
43312;BME280;30041;48.300;16.352;2023-02-13T00:18:58;101908.50;;;21.51;40.96
43312;BME280;30041;48.300;16.352;2023-02-13T00:21:23;101910.72;;;21.47;40.95
43312;BME280;30041;48.300;16.352;2023-02-13T00:23:48;101910.06;;;21.45;41.11
43312;BME280;30041;48.300;16.352;2023-02-13T00:26:14;101909.88;;;21.47;41.03
43312;BME280;30041;48.300;16.352;2023-02-13T00:28:40;101916.13;;;21.47;40.87
43312;BME280;30041;48.300;16.352;2023-02-13T00:31:08;101918.81;;;21.47;40.89
43312;BME280;30041;48.300;16.352;2023-02-13T00:33:33;101910.94;;;21.46;40.89
43312;BME280;30041;48.300;16.352;2023-02-13T00:36:03;101918.16;;;21.45;41.05
43312;BME280;30041;48.300;16.352;2023-02-13T00:38:28;101911.94;;;21.45;40.97
43312;BME280;30041;48.300;16.352;2023-02-13T00:40:54;101921.88;;;21.44;41.02
43312;BME280;30041;48.300;16.352;2023-02-13T00:43:19;101920.03;;;21.45;40.82
43312;BME280;30041;48.300;16.352;2023-02-13T00:45:44;101913.63;;;21.46;40.94
43312;BME280;30041;48.300;16.352;2023-02-13T00:48:10;101917.16;;;21.46;40.89
43312;BME280;30041;48.300;16.352;2023-02-13T00:50:35;101921.88;;;21.44;40.88
43312;BME280;30041;48.300;16.352;2023-02-13T00:53:00;101921.72;;;21.46;40.88
43312;BME280;30041;48.300;16.352;2023-02-13T00:55:26;101928.78;;;21.47;40.94
43312;BME280;30041;48.300;16.352;2023-02-13T00:57:51;101923.38;;;21.47;40.86
43312;BME280;30041;48.300;16.352;2023-02-13T01:00:17;101919.69;;;21.48;40.77
43312;BME280;30041;48.300;16.352;2023-02-13T01:02:42;101919.19;;;21.44;40.80
43312;BME280;30041;48.300;16.352;2023-02-13T01:05:08;101916.66;;;21.43;40.86
43312;BME280;30041;48.300;16.352;2023-02-13T01:07:33;101922.06;;;21.43;40.88
43312;BME280;30041;48.300;16.352;2023-02-13T01:09:58;101920.41;;;21.42;40.86
43312;BME280;30041;48.300;16.352;2023-02-13T01:12:24;101920.84;;;21.45;40.91
43312;BME280;30041;48.300;16.352;2023-02-13T01:14:49;101920.19;;;21.43;40.70
43312;BME280;30041;48.300;16.352;2023-02-13T01:17:15;101920.41;;;21.42;40.89
43312;BME280;30041;48.300;16.352;2023-02-13T01:19:40;101914.16;;;21.41;40.94
43312;BME280;30041;48.300;16.352;2023-02-13T01:22:06;101918.69;;;21.41;40.87
43312;BME280;30041;48.300;16.352;2023-02-13T01:24:32;101912.31;;;21.42;40.82
43312;BME280;30041;48.300;16.352;2023-02-13T01:26:57;101907.91;;;21.41;40.77
43312;BME280;30041;48.300;16.352;2023-02-13T01:29:22;101913.31;;;21.41;40.83
43312;BME280;30041;48.300;16.352;2023-02-13T01:31:48;101916.19;;;21.39;40.93
43312;BME280;30041;48.300;16.352;2023-02-13T01:34:13;101912.44;;;21.40;40.77
43312;BME280;30041;48.300;16.352;2023-02-13T01:36:38;101910.59;;;21.41;40.75
43312;BME280;30041;48.300;16.352;2023-02-13T01:39:04;101912.63;;;21.39;40.88
43312;BME280;30041;48.300;16.352;2023-02-13T01:41:29;101908.09;;;21.39;40.81
43312;BME280;30041;48.300;16.352;2023-02-13T01:43:57;101906.22;;;21.40;40.86
43312;BME280;30041;48.300;16.352;2023-02-13T01:46:30;101903.69;;;21.38;40.80
43312;BME280;30041;48.300;16.352;2023-02-13T01:49:05;101904.53;;;21.39;40.90
43312;BME280;30041;48.300;16.352;2023-02-13T01:51:33;101908.09;;;21.39;40.87
43312;BME280;30041;48.300;16.352;2023-02-13T01:54:04;101903.69;;;21.38;40.87
43312;BME280;30041;48.300;16.352;2023-02-13T01:56:52;101901.16;;;21.36;40.87
43312;BME280;30041;48.300;16.352;2023-02-13T01:59:21;101900.00;;;21.39;40.70
43312;BME280;30041;48.300;16.352;2023-02-13T02:01:49;101901.16;;;21.36;40.72
43312;BME280;30041;48.300;16.352;2023-02-13T02:04:19;101890.22;;;21.38;40.79
43312;BME280;30041;48.300;16.352;2023-02-13T02:06:51;101894.94;;;21.36;40.80
43312;BME280;30041;48.300;16.352;2023-02-13T02:09:22;101894.78;;;21.38;40.96
43312;BME280;30041;48.300;16.352;2023-02-13T02:12:22;101894.09;;;21.35;40.95
43312;BME280;30041;48.300;16.352;2023-02-13T02:14:52;101889.38;;;21.38;40.80
43312;BME280;30041;48.300;16.352;2023-02-13T02:17:20;101884.97;;;21.36;40.86
43312;BME280;30041;48.300;16.352;2023-02-13T02:25:32;101878.75;;;21.36;40.80
43312;BME280;30041;48.300;16.352;2023-02-13T02:28:28;101881.66;;;21.34;40.82
43312;BME280;30041;48.300;16.352;2023-02-13T02:36:45;101870.88;;;21.34;40.74
43312;BME280;30041;48.300;16.352;2023-02-13T02:39:29;101867.31;;;21.34;40.65
43312;BME280;30041;48.300;16.352;2023-02-13T02:49:59;101871.88;;;21.33;40.80
43312;BME280;30041;48.300;16.352;2023-02-13T02:52:41;101870.88;;;21.34;40.72
43312;BME280;30041;48.300;16.352;2023-02-13T02:55:34;101874.56;;;21.33;40.70
43312;BME280;30041;48.300;16.352;2023-02-13T02:58:09;101869.34;;;21.32;40.76
43312;BME280;30041;48.300;16.352;2023-02-13T03:00:40;101870.38;;;21.31;40.84
43312;BME280;30041;48.300;16.352;2023-02-13T03:03:26;101868.69;;;21.30;40.89
43312;BME280;30041;48.300;16.352;2023-02-13T03:05:54;101867.69;;;21.31;40.75
43312;BME280;30041;48.300;16.352;2023-02-13T03:08:20;101859.59;;;21.31;40.82
43312;BME280;30041;48.300;16.352;2023-02-13T03:10:46;101864.16;;;21.30;40.88
43312;BME280;30041;48.300;16.352;2023-02-13T03:13:27;101866.00;;;21.30;40.75
43312;BME280;30041;48.300;16.352;2023-02-13T03:15:58;101855.22;;;21.30;40.67
43312;BME280;30041;48.300;16.352;2023-02-13T03:18:25;101865.81;;;21.31;40.75
43312;BME280;30041;48.300;16.352;2023-02-13T03:21:04;101863.50;;;21.28;40.72
43312;BME280;30041;48.300;16.352;2023-02-13T03:26:06;101860.31;;;21.25;40.81
43312;BME280;30041;48.300;16.352;2023-02-13T03:33:37;101852.22;;;21.25;40.72
43312;BME280;30041;48.300;16.352;2023-02-13T03:36:18;101848.53;;;21.26;40.72
43312;BME280;30041;48.300;16.352;2023-02-13T03:41:13;101844.13;;;21.25;40.74
43312;BME280;30041;48.300;16.352;2023-02-13T03:44:03;101852.44;;;21.23;40.62
43312;BME280;30041;48.300;16.352;2023-02-13T03:46:25;101853.44;;;21.22;40.83
43312;BME280;30041;48.300;16.352;2023-02-13T03:48:53;101849.91;;;21.22;40.75
43312;BME280;30041;48.300;16.352;2023-02-13T03:51:38;101849.91;;;21.22;40.89
43312;BME280;30041;48.300;16.352;2023-02-13T03:56:46;101856.13;;;21.22;40.82
43312;BME280;30041;48.300;16.352;2023-02-13T03:59:21;101864.22;;;21.22;40.72
43312;BME280;30041;48.300;16.352;2023-02-13T04:02:33;101859.00;;;21.21;40.70
43312;BME280;30041;48.300;16.352;2023-02-13T04:04:45;101856.31;;;21.21;40.68
43312;BME280;30041;48.300;16.352;2023-02-13T04:07:14;101853.81;;;21.19;40.76
43312;BME280;30041;48.300;16.352;2023-02-13T04:09:41;101858.16;;;21.20;40.68
43312;BME280;30041;48.300;16.352;2023-02-13T04:12:17;101854.63;;;21.20;40.78
43312;BME280;30041;48.300;16.352;2023-02-13T04:17:11;101859.88;;;21.21;40.69
43312;BME280;30041;48.300;16.352;2023-02-13T04:19:40;101853.16;;;21.17;40.68
43312;BME280;30041;48.300;16.352;2023-02-13T04:22:05;101856.31;;;21.21;40.77
43312;BME280;30041;48.300;16.352;2023-02-13T04:24:30;101851.94;;;21.20;40.63
43312;BME280;30041;48.300;16.352;2023-02-13T04:26:55;101859.00;;;21.21;40.73
43312;BME280;30041;48.300;16.352;2023-02-13T04:29:22;101858.16;;;21.20;40.56
43312;BME280;30041;48.300;16.352;2023-02-13T04:31:48;101855.66;;;21.19;40.66
43312;BME280;30041;48.300;16.352;2023-02-13T04:34:13;101854.63;;;21.20;40.69
43312;BME280;30041;48.300;16.352;2023-02-13T04:36:38;101847.75;;;21.17;40.70
43312;BME280;30041;48.300;16.352;2023-02-13T04:39:03;101845.72;;;21.19;40.67
43312;BME280;30041;48.300;16.352;2023-02-13T04:41:29;101852.78;;;21.20;40.63
43312;BME280;30041;48.300;16.352;2023-02-13T04:43:54;101856.50;;;21.19;40.74
43312;BME280;30041;48.300;16.352;2023-02-13T04:46:19;101851.13;;;21.19;40.74
43312;BME280;30041;48.300;16.352;2023-02-13T04:48:45;101844.69;;;21.20;40.58
43312;BME280;30041;48.300;16.352;2023-02-13T04:51:10;101843.03;;;21.19;40.63
43312;BME280;30041;48.300;16.352;2023-02-13T04:53:35;101846.06;;;21.16;40.66
43312;BME280;30041;48.300;16.352;2023-02-13T04:56:00;101846.06;;;21.16;40.66
43312;BME280;30041;48.300;16.352;2023-02-13T04:58:26;101855.84;;;21.17;40.64
43312;BME280;30041;48.300;16.352;2023-02-13T05:00:51;101847.75;;;21.17;40.71
43312;BME280;30041;48.300;16.352;2023-02-13T05:03:16;101854.81;;;21.18;40.77
43312;BME280;30041;48.300;16.352;2023-02-13T05:05:41;101853.81;;;21.19;40.60
43312;BME280;30041;48.300;16.352;2023-02-13T05:08:07;101858.16;;;21.20;40.62
43312;BME280;30041;48.300;16.352;2023-02-13T05:10:34;101855.66;;;21.19;40.66
43312;BME280;30041;48.300;16.352;2023-02-13T05:13:00;101869.78;;;21.21;40.66
43312;BME280;30041;48.300;16.352;2023-02-13T05:15:25;101867.75;;;21.23;40.58
43312;BME280;30041;48.300;16.352;2023-02-13T05:17:51;101862.19;;;21.24;40.65
43312;BME280;30041;48.300;16.352;2023-02-13T05:20:17;101861.34;;;21.24;40.68
43312;BME280;30041;48.300;16.352;2023-02-13T05:22:48;101857.81;;;21.23;40.65
43312;BME280;30041;48.300;16.352;2023-02-13T05:25:14;101863.22;;;21.23;40.67
43312;BME280;30041;48.300;16.352;2023-02-13T05:27:39;101866.75;;;21.24;40.46
43312;BME280;30041;48.300;16.352;2023-02-13T05:30:05;101867.56;;;21.24;40.70
43312;BME280;30041;48.300;16.352;2023-02-13T05:32:31;101861.16;;;21.25;40.54
43312;BME280;30041;48.300;16.352;2023-02-13T05:34:56;101871.09;;;21.25;40.65
43312;BME280;30041;48.300;16.352;2023-02-13T05:37:22;101867.56;;;21.24;40.51
43312;BME280;30041;48.300;16.352;2023-02-13T05:39:47;101874.63;;;21.25;40.61
43312;BME280;30041;48.300;16.352;2023-02-13T05:42:13;101875.50;;;21.26;40.56
43312;BME280;30041;48.300;16.352;2023-02-13T05:44:38;101870.28;;;21.24;40.58
43312;BME280;30041;48.300;16.352;2023-02-13T05:47:04;101875.50;;;21.26;40.70
43312;BME280;30041;48.300;16.352;2023-02-13T05:49:29;101872.81;;;21.26;40.60
43312;BME280;30041;48.300;16.352;2023-02-13T05:51:55;101876.50;;;21.25;40.61
43312;BME280;30041;48.300;16.352;2023-02-13T05:54:20;101875.66;;;21.24;40.59
43312;BME280;30041;48.300;16.352;2023-02-13T05:56:46;101878.38;;;21.24;40.70
43312;BME280;30041;48.300;16.352;2023-02-13T05:59:12;101873.38;;;21.36;40.45
43312;BME280;30041;48.300;16.352;2023-02-13T06:01:38;101878.91;;;21.43;40.24
43312;BME280;30041;48.300;16.352;2023-02-13T06:04:03;101880.22;;;21.47;40.04
43312;BME280;30041;48.300;16.352;2023-02-13T06:06:29;101886.44;;;21.47;39.96
43312;BME280;30041;48.300;16.352;2023-02-13T06:08:54;101887.41;;;21.31;40.34
43312;BME280;30041;48.300;16.352;2023-02-13T06:11:20;101886.06;;;21.27;40.52
43312;BME280;30041;48.300;16.352;2023-02-13T06:13:45;101881.06;;;21.24;40.52
43312;BME280;30041;48.300;16.352;2023-02-13T06:16:10;101886.44;;;21.24;40.67
43312;BME280;30041;48.300;16.352;2023-02-13T06:18:36;101887.28;;;21.25;40.63
43312;BME280;30041;48.300;16.352;2023-02-13T06:21:01;101886.63;;;21.23;40.60
43312;BME280;30041;48.300;16.352;2023-02-13T06:23:27;101885.63;;;21.24;40.66
43312;BME280;30041;48.300;16.352;2023-02-13T06:25:52;101881.22;;;21.23;40.68
43312;BME280;30041;48.300;16.352;2023-02-13T06:28:17;101886.59;;;21.08;39.61
43312;BME280;30041;48.300;16.352;2023-02-13T06:30:43;101893.78;;;20.92;40.32
43312;BME280;30041;48.300;16.352;2023-02-13T06:33:08;101896.81;;;20.89;40.73
43312;BME280;30041;48.300;16.352;2023-02-13T06:35:33;101896.16;;;20.87;41.13
43312;BME280;30041;48.300;16.352;2023-02-13T06:37:59;101902.41;;;20.88;41.11
43312;BME280;30041;48.300;16.352;2023-02-13T06:40:24;101906.78;;;20.89;41.09
43312;BME280;30041;48.300;16.352;2023-02-13T06:42:49;101913.00;;;20.89;41.14
43312;BME280;30041;48.300;16.352;2023-02-13T06:45:14;101901.53;;;20.87;41.11
43312;BME280;30041;48.300;16.352;2023-02-13T06:47:44;101911.31;;;20.88;41.01
43312;BME280;30041;48.300;16.352;2023-02-13T06:50:10;101905.94;;;20.88;41.11
43312;BME280;30041;48.300;16.352;2023-02-13T06:52:35;101906.09;;;20.87;41.11
43312;BME280;30041;48.300;16.352;2023-02-13T06:55:01;101905.94;;;20.88;41.16
43312;BME280;30041;48.300;16.352;2023-02-13T06:57:26;101907.81;;;20.88;40.98
43312;BME280;30041;48.300;16.352;2023-02-13T06:59:51;101904.38;;;20.94;41.03
43312;BME280;30041;48.300;16.352;2023-02-13T07:02:17;101908.25;;;20.91;40.88
43312;BME280;30041;48.300;16.352;2023-02-13T07:04:42;101918.22;;;20.91;41.00
43312;BME280;30041;48.300;16.352;2023-02-13T07:07:07;101911.63;;;20.93;40.82
43312;BME280;30041;48.300;16.352;2023-02-13T07:09:33;101914.09;;;21.03;40.92
43312;BME280;30041;48.300;16.352;2023-02-13T07:12:02;101913.19;;;21.11;40.60
43312;BME280;30041;48.300;16.352;2023-02-13T07:14:28;101914.09;;;21.26;40.52
43312;BME280;30041;48.300;16.352;2023-02-13T07:16:53;101916.06;;;21.32;40.33
43312;BME280;30041;48.300;16.352;2023-02-13T07:19:19;101922.63;;;21.30;40.41
43312;BME280;30041;48.300;16.352;2023-02-13T07:21:44;101919.59;;;21.33;40.41
43312;BME280;30041;48.300;16.352;2023-02-13T07:24:10;101920.13;;;21.28;40.41
43312;BME280;30041;48.300;16.352;2023-02-13T07:26:35;101926.91;;;21.24;40.53
43312;BME280;30041;48.300;16.352;2023-02-13T07:29:01;101924.22;;;21.24;40.32
43312;BME280;30041;48.300;16.352;2023-02-13T07:31:26;101927.41;;;21.28;40.27
43312;BME280;30041;48.300;16.352;2023-02-13T07:33:52;101926.38;;;21.29;40.31
43312;BME280;30041;48.300;16.352;2023-02-13T07:36:17;101927.84;;;21.31;40.20
43312;BME280;30041;48.300;16.352;2023-02-13T07:38:43;101931.38;;;21.32;40.28
43312;BME280;30041;48.300;16.352;2023-02-13T07:41:08;101931.22;;;21.33;40.40
43312;BME280;30041;48.300;16.352;2023-02-13T07:43:34;101932.03;;;21.34;40.11
43312;BME280;30041;48.300;16.352;2023-02-13T07:46:01;101932.25;;;21.32;40.35
43312;BME280;30041;48.300;16.352;2023-02-13T07:48:27;101922.47;;;21.31;40.29
43312;BME280;30041;48.300;16.352;2023-02-13T07:50:58;101925.16;;;21.31;40.46
43312;BME280;30041;48.300;16.352;2023-02-13T07:53:24;101927.69;;;21.33;40.36
43312;BME280;30041;48.300;16.352;2023-02-13T07:55:50;101933.91;;;21.33;40.41
43312;BME280;30041;48.300;16.352;2023-02-13T07:58:15;101929.56;;;21.32;40.49
43312;BME280;30041;48.300;16.352;2023-02-13T08:00:41;101927.84;;;21.31;40.42
43312;BME280;30041;48.300;16.352;2023-02-13T08:03:06;101935.94;;;21.31;40.46
43312;BME280;30041;48.300;16.352;2023-02-13T08:05:32;101933.91;;;21.33;40.50
43312;BME280;30041;48.300;16.352;2023-02-13T08:07:58;101938.47;;;21.33;40.46
43312;BME280;30041;48.300;16.352;2023-02-13T08:10:24;101934.28;;;21.30;40.51
43312;BME280;30041;48.300;16.352;2023-02-13T08:12:50;101931.94;;;21.27;40.67
43312;BME280;30041;48.300;16.352;2023-02-13T08:15:16;101932.59;;;21.29;40.71
43312;BME280;30041;48.300;16.352;2023-02-13T08:17:42;101927.03;;;21.31;40.63
43312;BME280;30041;48.300;16.352;2023-02-13T08:20:08;101924.50;;;21.29;40.52
43312;BME280;30041;48.300;16.352;2023-02-13T08:22:38;101919.31;;;21.28;40.64
43312;BME280;30041;48.300;16.352;2023-02-13T08:25:05;101926.19;;;21.30;40.65
43312;BME280;30041;48.300;16.352;2023-02-13T08:27:31;101924.81;;;21.34;40.54
43312;BME280;30041;48.300;16.352;2023-02-13T08:29:57;101926.47;;;21.35;40.46
43312;BME280;30041;48.300;16.352;2023-02-13T08:32:24;101924.44;;;21.38;40.34
43312;BME280;30041;48.300;16.352;2023-02-13T08:34:50;101931.50;;;21.39;40.37
43312;BME280;30041;48.300;16.352;2023-02-13T08:37:16;101931.50;;;21.39;40.22
43312;BME280;30041;48.300;16.352;2023-02-13T08:39:42;101927.78;;;21.40;40.31
43312;BME280;30041;48.300;16.352;2023-02-13T08:42:07;101933.19;;;21.40;40.29
43312;BME280;30041;48.300;16.352;2023-02-13T08:44:33;101934.19;;;21.39;40.28
43312;BME280;30041;48.300;16.352;2023-02-13T08:46:59;101930.84;;;21.36;40.22
43312;BME280;30041;48.300;16.352;2023-02-13T08:49:24;101929.84;;;21.38;40.16
43312;BME280;30041;48.300;16.352;2023-02-13T08:51:50;101935.22;;;21.38;40.31
43312;BME280;30041;48.300;16.352;2023-02-13T08:54:15;101933.88;;;21.42;40.26
43312;BME280;30041;48.300;16.352;2023-02-13T08:56:41;101936.91;;;21.39;40.21
43312;BME280;30041;48.300;16.352;2023-02-13T08:59:07;101936.91;;;21.39;40.31
43312;BME280;30041;48.300;16.352;2023-02-13T09:01:33;101935.88;;;21.40;40.18
43312;BME280;30041;48.300;16.352;2023-02-13T09:03:59;101942.81;;;21.42;40.10
43312;BME280;30041;48.300;16.352;2023-02-13T09:06:26;101935.06;;;21.39;40.30
43312;BME280;30041;48.300;16.352;2023-02-13T09:08:54;101937.75;;;21.39;40.25
43312;BME280;30041;48.300;16.352;2023-02-13T09:11:20;101940.47;;;21.39;40.26
43312;BME280;30041;48.300;16.352;2023-02-13T09:13:45;101933.06;;;21.41;40.11
43312;BME280;30041;48.300;16.352;2023-02-13T09:16:11;101941.16;;;21.41;40.14
43312;BME280;30041;48.300;16.352;2023-02-13T09:18:36;101934.88;;;21.41;40.21
43312;BME280;30041;48.300;16.352;2023-02-13T09:21:11;101940.47;;;21.39;40.31
43312;BME280;30041;48.300;16.352;2023-02-13T09:23:38;101943.16;;;21.39;40.24
43312;BME280;30041;48.300;16.352;2023-02-13T09:26:06;101942.13;;;21.40;40.20
43312;BME280;30041;48.300;16.352;2023-02-13T09:28:33;101947.69;;;21.39;40.16
43312;BME280;30041;48.300;16.352;2023-02-13T09:30:59;101950.06;;;21.42;40.17
43312;BME280;30041;48.300;16.352;2023-02-13T09:33:25;101949.88;;;21.43;40.19
43312;BME280;30041;48.300;16.352;2023-02-13T09:35:53;101947.00;;;21.45;40.13
43312;BME280;30041;48.300;16.352;2023-02-13T09:38:19;101958.16;;;21.42;40.23
43312;BME280;30041;48.300;16.352;2023-02-13T09:40:51;101958.81;;;21.44;40.09
43312;BME280;30041;48.300;16.352;2023-02-13T09:46:13;101961.53;;;21.44;40.10
43312;BME280;30041;48.300;16.352;2023-02-13T09:48:42;101954.44;;;21.43;40.21
43312;BME280;30041;48.300;16.352;2023-02-13T09:51:13;101947.81;;;21.45;40.20
43312;BME280;30041;48.300;16.352;2023-02-13T09:53:40;101936.50;;;21.50;39.96
43312;BME280;30041;48.300;16.352;2023-02-13T09:56:13;101943.63;;;21.43;40.14
43312;BME280;30041;48.300;16.352;2023-02-13T09:58:59;101950.06;;;21.42;40.12
43312;BME280;30041;48.300;16.352;2023-02-13T10:01:34;101942.81;;;21.42;40.15
43312;BME280;30041;48.300;16.352;2023-02-13T10:07:10;101942.25;;;21.47;40.06
43312;BME280;30041;48.300;16.352;2023-02-13T10:10:00;101942.63;;;21.44;40.02
43312;BME280;30041;48.300;16.352;2023-02-13T10:12:45;101947.38;;;21.42;40.13
43312;BME280;30041;48.300;16.352;2023-02-13T10:17:53;101944.97;;;21.47;40.14
43312;BME280;30041;48.300;16.352;2023-02-13T10:20:35;101941.25;;;21.48;39.87
43312;BME280;30041;48.300;16.352;2023-02-13T10:23:27;101938.72;;;21.46;40.11
43312;BME280;30041;48.300;16.352;2023-02-13T10:25:58;101948.69;;;21.46;39.98
43312;BME280;30041;48.300;16.352;2023-02-13T10:28:32;101946.00;;;21.46;40.29
43312;BME280;30041;48.300;16.352;2023-02-13T10:31:04;101936.03;;;21.46;40.17
43312;BME280;30041;48.300;16.352;2023-02-13T10:33:52;101931.66;;;21.45;40.02
43312;BME280;30041;48.300;16.352;2023-02-13T10:36:25;101933.16;;;21.48;40.21
43312;BME280;30041;48.300;16.352;2023-02-13T10:41:49;101923.38;;;21.47;40.03
43312;BME280;30041;48.300;16.352;2023-02-13T10:44:41;101917.31;;;21.45;40.15
43312;BME280;30041;48.300;16.352;2023-02-13T10:50:11;101917.16;;;21.46;40.05
43312;BME280;30041;48.300;16.352;2023-02-13T10:55:35;101918.63;;;21.49;40.03
43312;BME280;30041;48.300;16.352;2023-02-13T10:58:14;101912.41;;;21.48;40.04
43312;BME280;30041;48.300;16.352;2023-02-13T11:03:22;101909.88;;;21.47;39.90
43312;BME280;30041;48.300;16.352;2023-02-13T11:05:49;101907.03;;;21.48;39.88
43312;BME280;30041;48.300;16.352;2023-02-13T11:08:31;101900.59;;;21.49;39.68
43312;BME280;30041;48.300;16.352;2023-02-13T11:10:57;101902.63;;;21.47;40.07
43312;BME280;30041;48.300;16.352;2023-02-13T11:13:25;101908.22;;;21.46;39.88
43312;BME280;30041;48.300;16.352;2023-02-13T11:16:04;101898.09;;;21.48;39.84
43312;BME280;30041;48.300;16.352;2023-02-13T11:18:33;101898.94;;;21.48;40.03
43312;BME280;30041;48.300;16.352;2023-02-13T11:21:22;101900.59;;;21.49;39.88
43312;BME280;30041;48.300;16.352;2023-02-13T11:23:56;101895.41;;;21.48;40.08
43312;BME280;30041;48.300;16.352;2023-02-13T11:26:35;101896.41;;;21.47;40.06
43312;BME280;30041;48.300;16.352;2023-02-13T11:29:05;101895.56;;;21.46;40.11
43312;BME280;30041;48.300;16.352;2023-02-13T11:31:40;101890.63;;;21.50;40.00
43312;BME280;30041;48.300;16.352;2023-02-13T11:37:06;101892.50;;;21.49;40.14
43312;BME280;30041;48.300;16.352;2023-02-13T11:39:32;101882.91;;;21.47;40.01
43312;BME280;30041;48.300;16.352;2023-02-13T11:41:58;101882.53;;;21.50;39.97
43312;BME280;30041;48.300;16.352;2023-02-13T11:44:27;101889.78;;;21.49;40.02
43312;BME280;30041;48.300;16.352;2023-02-13T11:46:56;101884.94;;;21.45;40.04
43312;BME280;30041;48.300;16.352;2023-02-13T11:49:24;101880.22;;;21.47;39.98
43312;BME280;30041;48.300;16.352;2023-02-13T11:51:57;101888.97;;;21.49;39.97
43312;BME280;30041;48.300;16.352;2023-02-13T11:57:00;101885.44;;;21.48;39.92
43312;BME280;30041;48.300;16.352;2023-02-13T11:59:30;101888.13;;;21.48;39.89
43312;BME280;30041;48.300;16.352;2023-02-13T12:02:16;101883.56;;;21.49;39.89
43312;BME280;30041;48.300;16.352;2023-02-13T12:04:42;101891.00;;;21.47;39.98
43312;BME280;30041;48.300;16.352;2023-02-13T12:07:28;101888.31;;;21.47;40.00
43312;BME280;30041;48.300;16.352;2023-02-13T12:12:46;101888.78;;;21.50;39.77
43312;BME280;30041;48.300;16.352;2023-02-13T12:15:18;101887.31;;;21.48;40.00
43312;BME280;30041;48.300;16.352;2023-02-13T12:17:48;101881.91;;;21.48;40.08
43312;BME280;30041;48.300;16.352;2023-02-13T12:20:17;101874.81;;;21.47;40.01
43312;BME280;30041;48.300;16.352;2023-02-13T12:28:16;101869.03;;;21.50;39.79
43312;BME280;30041;48.300;16.352;2023-02-13T12:50:18;101849.53;;;21.48;39.99
43312;BME280;30041;48.300;16.352;2023-02-13T12:56:21;101847.47;;;21.50;39.90
43312;BME280;30041;48.300;16.352;2023-02-13T12:58:52;101833.25;;;21.56;39.81
43312;BME280;30041;48.300;16.352;2023-02-13T13:06:54;101827.84;;;21.56;39.71
43312;BME280;30041;48.300;16.352;2023-02-13T13:09:41;101818.75;;;21.57;39.81
43312;BME280;30041;48.300;16.352;2023-02-13T13:17:54;101817.06;;;21.56;40.01
43312;BME280;30041;48.300;16.352;2023-02-13T13:23:07;101829.06;;;21.53;39.84
43312;BME280;30041;48.300;16.352;2023-02-13T13:25:46;101823.47;;;21.55;39.91
43312;BME280;30041;48.300;16.352;2023-02-13T13:28:18;101824.31;;;21.55;39.93
43312;BME280;30041;48.300;16.352;2023-02-13T13:30:46;101828.06;;;21.54;40.09
43312;BME280;30041;48.300;16.352;2023-02-13T13:33:18;101820.78;;;21.55;39.89
43312;BME280;30041;48.300;16.352;2023-02-13T13:36:05;101823.47;;;21.55;40.00
43312;BME280;30041;48.300;16.352;2023-02-13T13:41:57;101815.56;;;21.53;39.90
43312;BME280;30041;48.300;16.352;2023-02-13T13:50:26;101815.56;;;21.53;39.96
43312;BME280;30041;48.300;16.352;2023-02-13T13:53:12;101814.72;;;21.53;39.89
43312;BME280;30041;48.300;16.352;2023-02-13T13:58:36;101814.34;;;21.56;39.93
43312;BME280;30041;48.300;16.352;2023-02-13T14:01:22;101817.06;;;21.56;39.80
43312;BME280;30041;48.300;16.352;2023-02-13T14:06:26;101816.03;;;21.57;39.86
43312;BME280;30041;48.300;16.352;2023-02-13T14:09:00;101817.25;;;21.54;39.88
43312;BME280;30041;48.300;16.352;2023-02-13T14:11:34;101805.59;;;21.54;39.83
43312;BME280;30041;48.300;16.352;2023-02-13T14:14:00;101807.09;;;21.56;39.78
43312;BME280;30041;48.300;16.352;2023-02-13T14:16:38;101804.38;;;21.56;39.96
43312;BME280;30041;48.300;16.352;2023-02-13T14:19:05;101802.34;;;21.59;39.78
43312;BME280;30041;48.300;16.352;2023-02-13T14:21:45;101792.59;;;21.58;39.88
43312;BME280;30041;48.300;16.352;2023-02-13T14:24:11;101799.66;;;21.59;39.81
43312;BME280;30041;48.300;16.352;2023-02-13T14:26:38;101794.63;;;21.55;40.03
43312;BME280;30041;48.300;16.352;2023-02-13T14:31:38;101803.22;;;21.59;39.98
43312;BME280;30041;48.300;16.352;2023-02-13T14:36:41;101803.22;;;21.59;39.78
43312;BME280;30041;48.300;16.352;2023-02-13T14:44:31;101806.47;;;21.54;39.81
43312;BME280;30041;48.300;16.352;2023-02-13T14:47:04;101799.19;;;21.55;39.75
43312;BME280;30041;48.300;16.352;2023-02-13T14:49:36;101812.13;;;21.60;39.86
43312;BME280;30041;48.300;16.352;2023-02-13T14:52:07;101799.66;;;21.59;39.64
43312;BME280;30041;48.300;16.352;2023-02-13T14:54:48;101798.16;;;21.56;39.59
43312;BME280;30041;48.300;16.352;2023-02-13T14:57:32;101794.53;;;21.49;39.90
43312;BME280;30041;48.300;16.352;2023-02-13T15:00:16;101806.81;;;21.51;39.84
43312;BME280;30041;48.300;16.352;2023-02-13T15:02:48;101794.16;;;21.52;39.89